Terminal Aerodrome Forecast
Issued by NWS Central Illinois

Home | Current Version | Previous Version | Text Only | Print | Product List | Glossary On
Versions: 1 2 3 4 5 6 7 8 9 10 11 12 13 14 15 16 17 18 19 20 21
000
FTUS43 KILX 291120
TAFPIA
TAF
KPIA 291120Z 2912/3012 21010G20KT P6SM VCSH BKN080 WS020/22045KT
     FM291400 22013G20KT P6SM SCT050 BKN100
     FM292200 23009KT P6SM VCTS SCT050CB BKN200
     FM300000 23006KT P6SM VCTS SCT050CB BKN090
     FM300400 15004KT P6SM SHRA BKN090
     FM300900 17006KT P6SM SHRA OVC045=

USA.gov is the U.S. government's official web portal to all federal, state and local government web resources and services.